createdAt,value
2023-04-01T00:00:57.467Z,9.10
2023-04-01T00:03:24.533Z,4.63
2023-04-01T00:05:51.110Z,7.78
2023-04-01T00:08:17.612Z,11.07
2023-04-01T00:10:44.036Z,6.82
2023-04-01T00:13:10.770Z,19.52
2023-04-01T00:15:37.791Z,8.00
2023-04-01T00:18:04.697Z,9.43
2023-04-01T00:20:31.065Z,8.65
2023-04-01T00:22:57.560Z,4.78
2023-04-01T00:25:24.385Z,5.90
2023-04-01T00:27:51.069Z,7.93
2023-04-01T00:30:17.509Z,10.73
2023-04-01T00:32:43.997Z,11.05
2023-04-01T00:35:11.103Z,9.90
2023-04-01T00:37:37.913Z,25.88
2023-04-01T00:40:06.172Z,32.78
2023-04-01T00:42:32.628Z,15.35
2023-04-01T00:44:58.959Z,16.55
2023-04-01T00:47:26.586Z,12.20
2023-04-01T00:49:54.126Z,20.77
2023-04-01T00:52:23.620Z,8.00
2023-04-01T00:54:51.354Z,10.50
2023-04-01T00:57:22.981Z,18.67
2023-04-01T00:59:51.152Z,18.60
2023-04-01T01:02:18.389Z,11.27
2023-04-01T01:04:44.836Z,11.57
2023-04-01T01:07:11.057Z,20.42
2023-04-01T01:09:37.327Z,23.42
2023-04-01T01:12:09.412Z,18.65
2023-04-01T01:14:41.199Z,18.17
2023-04-01T01:17:13.544Z,15.77
2023-04-01T01:19:44.769Z,13.93
2023-04-01T01:22:31.395Z,8.35
2023-04-01T01:24:57.632Z,16.90
2023-04-01T01:27:24.158Z,12.68
2023-04-01T01:30:11.351Z,15.05
2023-04-01T01:32:55.871Z,11.85
2023-04-01T01:35:28.076Z,10.25
2023-04-01T01:38:04.718Z,9.20
2023-04-01T01:40:32.724Z,15.35
2023-04-01T01:43:00.944Z,15.77
2023-04-01T01:45:27.944Z,13.20
2023-04-01T01:47:54.683Z,7.95
2023-04-01T01:50:22.360Z,8.43
2023-04-01T01:52:48.681Z,10.93
2023-04-01T01:55:28.996Z,11.32
2023-04-01T01:57:56.912Z,3.67
2023-04-01T02:00:23.441Z,5.20
2023-04-01T02:02:51.357Z,9.45
2023-04-01T02:05:22.084Z,9.50
2023-04-01T02:07:52.125Z,5.18
2023-04-01T02:10:19.515Z,7.57
2023-04-01T02:12:47.026Z,6.32
2023-04-01T02:15:15.372Z,18.13
2023-04-01T02:17:44.485Z,8.27
2023-04-01T02:20:18.320Z,8.40
2023-04-01T02:22:47.715Z,5.80
2023-04-01T02:25:16.673Z,10.52
2023-04-01T02:27:44.335Z,7.32
2023-04-01T02:30:11.163Z,3.63
2023-04-01T02:32:39.263Z,6.88
2023-04-01T02:35:11.525Z,5.85
2023-04-01T02:37:40.302Z,1.65
2023-04-01T02:40:08.401Z,2.58
2023-04-01T02:42:34.892Z,2.42
2023-04-01T02:45:01.320Z,2.22
2023-04-01T02:47:27.601Z,8.07
2023-04-01T02:49:58.834Z,3.70
2023-04-01T02:52:25.730Z,5.03
2023-04-01T02:54:52.180Z,3.88
2023-04-01T02:57:18.437Z,2.63
2023-04-01T02:59:44.717Z,2.88
2023-04-01T03:02:11.051Z,11.88
2023-04-01T03:04:37.390Z,5.30
2023-04-01T03:07:03.809Z,7.95
2023-04-01T03:09:30.492Z,8.13
2023-04-01T03:11:56.748Z,2.63
2023-04-01T03:14:22.976Z,2.80
2023-04-01T03:16:49.378Z,3.17
2023-04-01T03:19:15.923Z,5.07
2023-04-01T03:21:42.156Z,3.13
2023-04-01T03:24:08.969Z,8.20
2023-04-01T03:26:35.250Z,3.58
2023-04-01T03:29:01.573Z,3.42
2023-04-01T03:31:28.025Z,2.85
2023-04-01T03:33:54.400Z,1.80
2023-04-01T03:36:21.032Z,4.47
2023-04-01T03:38:47.428Z,6.47
2023-04-01T03:41:14.879Z,4.82
2023-04-01T03:43:41.156Z,2.30
2023-04-01T03:46:07.579Z,3.20
2023-04-01T03:48:33.928Z,1.55
2023-04-01T03:51:00.319Z,4.70
2023-04-01T03:53:27.923Z,2.90
2023-04-01T03:55:54.676Z,2.10
2023-04-01T03:58:21.108Z,2.20
2023-04-01T04:00:47.382Z,8.35
2023-04-01T04:03:13.807Z,10.25
2023-04-01T04:05:46.916Z,8.52
2023-04-01T04:08:13.145Z,7.72
2023-04-01T04:10:39.404Z,7.47
2023-04-01T04:13:05.800Z,7.05
2023-04-01T04:15:32.243Z,7.22
2023-04-01T04:17:58.724Z,11.90
2023-04-01T04:20:25.405Z,13.52
2023-04-01T04:22:51.651Z,9.60
2023-04-01T04:25:17.950Z,10.05
2023-04-01T04:27:44.557Z,15.13
2023-04-01T04:30:11.125Z,4.78
2023-04-01T04:32:38.136Z,6.53
2023-04-01T04:35:04.718Z,5.28
2023-04-01T04:37:31.001Z,5.95
2023-04-01T04:39:57.352Z,6.72
2023-04-01T04:42:23.690Z,10.77
2023-04-01T04:44:50.004Z,3.97
2023-04-01T04:47:16.325Z,12.90
2023-04-01T04:49:42.634Z,12.85
2023-04-01T04:52:08.974Z,8.35
2023-04-01T04:54:35.363Z,5.65
2023-04-01T04:57:01.647Z,12.32
2023-04-01T04:59:28.019Z,4.28
2023-04-01T05:01:54.269Z,7.43
2023-04-01T05:04:20.620Z,5.00
2023-04-01T05:06:46.941Z,22.08
2023-04-01T05:09:13.208Z,5.05
2023-04-01T05:11:39.521Z,4.03
2023-04-01T05:14:05.844Z,3.53
2023-04-01T05:16:32.567Z,3.03
2023-04-01T05:18:58.931Z,3.08
2023-04-01T05:21:25.461Z,1.58
2023-04-01T05:23:51.690Z,3.03
2023-04-01T05:26:18.281Z,1.92
2023-04-01T05:28:44.531Z,1.63
2023-04-01T05:31:10.862Z,2.05
2023-04-01T05:33:37.273Z,1.50
2023-04-01T05:36:21.885Z,2.10
2023-04-01T05:38:48.409Z,2.30
2023-04-01T05:41:15.248Z,3.28
2023-04-01T05:43:42.016Z,1.60
2023-04-01T05:46:08.665Z,2.35
2023-04-01T05:48:35.991Z,3.38
2023-04-01T05:51:02.724Z,2.40
2023-04-01T05:53:29.024Z,1.83
2023-04-01T05:55:55.442Z,1.50
2023-04-01T05:58:21.684Z,1.67
2023-04-01T06:00:48.027Z,1.80
2023-04-01T06:03:14.471Z,2.70
2023-04-01T06:05:42.201Z,3.42
2023-04-01T06:08:20.461Z,1.40
2023-04-01T06:11:02.204Z,1.88
2023-04-01T06:13:34.539Z,1.30
2023-04-01T06:16:03.871Z,2.35
2023-04-01T06:18:36.938Z,2.42
2023-04-01T06:21:21.705Z,1.85
2023-04-01T06:24:09.497Z,1.65
2023-04-01T06:26:44.884Z,2.25
2023-04-01T06:29:23.613Z,1.40
2023-04-01T06:31:53.014Z,1.05
2023-04-01T06:34:45.173Z,0.85
2023-04-01T06:37:11.675Z,1.27
2023-04-01T06:39:53.810Z,1.00
2023-04-01T06:42:55.506Z,1.48
2023-04-01T06:45:31.253Z,1.20
2023-04-01T06:48:15.710Z,2.60
2023-04-01T06:50:49.193Z,2.08
2023-04-01T06:53:15.462Z,3.55
2023-04-01T06:55:46.905Z,0.77
2023-04-01T06:58:32.420Z,1.25
2023-04-01T07:01:00.245Z,1.02
2023-04-01T07:03:35.788Z,1.92
2023-04-01T07:06:28.364Z,0.98
2023-04-01T07:08:56.603Z,1.80
2023-04-01T07:11:27.887Z,0.95
2023-04-01T07:13:56.233Z,0.77
2023-04-01T07:16:26.697Z,0.70
2023-04-01T07:18:53.016Z,2.88
2023-04-01T07:21:37.044Z,6.88
2023-04-01T07:24:10.028Z,0.95
2023-04-01T07:26:36.328Z,0.93
2023-04-01T07:29:02.741Z,1.52
2023-04-01T07:31:31.953Z,1.45
2023-04-01T07:34:01.242Z,2.42
2023-04-01T07:36:42.924Z,2.72
2023-04-01T07:39:13.545Z,3.30
2023-04-01T07:41:46.254Z,1.70
2023-04-01T07:44:26.577Z,4.18
2023-04-01T07:46:56.975Z,2.83
2023-04-01T07:49:51.160Z,1.20
2023-04-01T07:52:27.078Z,1.58
2023-04-01T07:55:07.152Z,2.25
2023-04-01T07:57:39.628Z,3.60
2023-04-01T08:00:19.694Z,5.75
2023-04-01T08:03:09.339Z,1.43
2023-04-01T08:05:46.910Z,1.40
2023-04-01T08:08:24.827Z,1.92
2023-04-01T08:10:55.501Z,1.73
2023-04-01T08:13:45.224Z,2.35
2023-04-01T08:16:11.740Z,1.83
2023-04-01T08:18:51.234Z,1.83
2023-04-01T08:21:20.548Z,1.50
2023-04-01T08:23:52.694Z,1.60
2023-04-01T08:26:37.090Z,1.48
2023-04-01T08:29:11.476Z,2.50
2023-04-01T08:31:52.822Z,2.40
2023-04-01T08:34:23.258Z,7.90
2023-04-01T08:37:02.204Z,6.65
2023-04-01T08:39:35.168Z,6.07
2023-04-01T08:42:10.478Z,6.90
2023-04-01T08:45:01.046Z,10.25
2023-04-01T08:47:45.905Z,5.78
2023-04-01T08:50:27.617Z,6.07
2023-04-01T08:53:12.135Z,7.22
2023-04-01T08:55:46.074Z,7.63
2023-04-01T08:58:27.633Z,8.90
2023-04-01T09:00:53.872Z,10.40
2023-04-01T09:03:39.917Z,8.32
2023-04-01T09:06:21.329Z,7.20
2023-04-01T09:09:06.238Z,4.47
2023-04-01T09:11:51.805Z,4.57
2023-04-01T09:14:21.714Z,5.68
2023-04-01T09:16:56.912Z,6.55
2023-04-01T09:19:32.292Z,6.13
2023-04-01T09:22:06.568Z,4.72
2023-04-01T09:24:46.160Z,3.55
2023-04-01T09:27:24.577Z,2.35
2023-04-01T09:29:51.283Z,2.25
2023-04-01T09:32:32.926Z,1.50
2023-04-01T09:35:12.259Z,1.30
2023-04-01T09:38:16.954Z,2.10
2023-04-01T09:40:54.830Z,1.55
2023-04-01T09:43:24.057Z,2.25
2023-04-01T09:45:56.272Z,0.98
2023-04-01T09:48:28.713Z,1.48
2023-04-01T09:51:02.767Z,1.48
2023-04-01T09:53:28.974Z,1.50
2023-04-01T09:56:13.898Z,2.00
2023-04-01T09:58:59.074Z,1.40
2023-04-01T10:01:25.441Z,2.15
2023-04-01T10:03:54.612Z,1.45
2023-04-01T10:06:39.628Z,2.85
2023-04-01T10:09:24.758Z,3.58
2023-04-01T10:12:05.576Z,2.20
2023-04-01T10:14:31.837Z,3.15
2023-04-01T10:17:16.728Z,2.85
2023-04-01T10:20:06.530Z,5.25
2023-04-01T10:22:35.814Z,2.92
2023-04-01T10:25:20.862Z,2.92
2023-04-01T10:28:05.800Z,2.65
2023-04-01T10:30:51.275Z,3.83
2023-04-01T10:33:36.214Z,5.78
2023-04-01T10:36:02.469Z,3.97
2023-04-01T10:39:01.357Z,3.45
2023-04-01T10:41:33.480Z,2.70
2023-04-01T10:44:02.640Z,1.25
2023-04-01T10:46:43.945Z,3.47
2023-04-01T10:49:19.324Z,6.25
2023-04-01T10:52:00.887Z,3.22
2023-04-01T10:54:30.233Z,6.35
2023-04-01T10:56:59.561Z,2.10
2023-04-01T10:59:44.040Z,1.67
2023-04-01T11:02:24.883Z,3.53
2023-04-01T11:07:20.516Z,2.55
2023-04-01T11:10:01.981Z,5.28
2023-04-01T11:12:45.104Z,2.30
2023-04-01T11:15:30.107Z,1.00
2023-04-01T11:17:59.490Z,1.33
2023-04-01T11:20:37.968Z,2.53
2023-04-01T11:23:04.191Z,2.00
2023-04-01T11:25:37.328Z,3.08
2023-04-01T11:28:06.472Z,0.77
2023-04-01T11:30:36.108Z,4.47
2023-04-01T11:33:02.487Z,0.60
2023-04-01T11:35:32.170Z,0.60
2023-04-01T11:38:11.673Z,3.42
2023-04-01T11:40:42.348Z,2.08
2023-04-01T11:43:17.265Z,0.70
2023-04-01T11:46:04.323Z,0.63
2023-04-01T11:48:49.658Z,0.77
2023-04-01T11:51:34.636Z,0.70
2023-04-01T11:54:00.951Z,1.05
2023-04-01T11:56:45.915Z,0.98
2023-04-01T11:59:30.688Z,0.47
2023-04-01T12:02:09.479Z,0.70
2023-04-01T12:04:39.821Z,0.80
2023-04-01T12:07:18.525Z,0.50
2023-04-01T12:10:04.698Z,0.40
2023-04-01T12:12:38.221Z,0.70
2023-04-01T12:15:18.782Z,0.60
2023-04-01T12:17:54.204Z,0.40
2023-04-01T12:20:39.351Z,1.13
2023-04-01T12:23:11.542Z,0.85
2023-04-01T12:25:53.081Z,1.00
2023-04-01T12:28:19.381Z,1.55
2023-04-01T12:30:48.622Z,1.05
2023-04-01T12:33:21.141Z,1.25
2023-04-01T12:35:57.602Z,1.45
2023-04-01T12:38:27.043Z,2.05
2023-04-01T12:41:12.141Z,2.15
2023-04-01T12:43:51.520Z,2.10
2023-04-01T12:46:25.460Z,1.95
2023-04-01T12:49:13.216Z,3.33
2023-04-01T12:51:45.627Z,2.85
2023-04-01T12:54:15.006Z,4.22
2023-04-01T12:56:53.652Z,5.47
2023-04-01T12:59:28.020Z,10.68
2023-04-01T13:02:26.934Z,4.40
2023-04-01T13:04:56.012Z,5.82
2023-04-01T13:07:27.227Z,5.22
2023-04-01T13:09:59.564Z,4.70
2023-04-01T13:12:44.631Z,5.38
2023-04-01T13:15:23.023Z,8.75
2023-04-01T13:17:53.846Z,5.03
2023-04-01T13:20:27.268Z,3.85
2023-04-01T13:23:05.009Z,3.55
2023-04-01T13:25:41.289Z,3.22
2023-04-01T13:28:16.114Z,5.32
2023-04-01T13:30:42.393Z,3.88
2023-04-01T13:33:28.412Z,5.18
2023-04-01T13:36:06.489Z,5.85
2023-04-01T13:38:53.847Z,2.60
2023-04-01T13:41:20.162Z,2.13
2023-04-01T13:43:48.984Z,1.63
2023-04-01T13:46:30.476Z,1.45
2023-04-01T13:49:03.100Z,1.67
2023-04-01T13:51:38.760Z,2.38
2023-04-01T13:54:11.086Z,1.60
2023-04-01T13:56:43.437Z,1.80
2023-04-01T13:59:28.504Z,2.33
2023-04-01T14:02:11.569Z,1.80
2023-04-01T14:04:38.035Z,1.67
2023-04-01T14:07:16.895Z,1.55
2023-04-01T14:09:49.190Z,1.98
2023-04-01T14:12:16.555Z,1.42
2023-04-01T14:15:08.101Z,1.10
2023-04-01T14:17:53.174Z,1.08
2023-04-01T14:20:38.757Z,1.13
2023-04-01T14:23:12.326Z,1.02
2023-04-01T14:25:52.582Z,1.92
2023-04-01T14:28:37.727Z,1.65
2023-04-01T14:31:22.715Z,1.80
2023-04-01T14:33:59.769Z,2.50
2023-04-01T14:36:44.365Z,1.45
2023-04-01T14:39:17.502Z,0.98
2023-04-01T14:41:48.806Z,2.55
2023-04-01T14:44:15.271Z,2.03
2023-04-01T14:47:00.337Z,2.88
2023-04-01T14:49:45.474Z,7.53
2023-04-01T14:52:25.188Z,2.33
2023-04-01T14:54:51.933Z,1.52
2023-04-01T14:57:24.826Z,1.52
2023-04-01T14:59:59.179Z,1.83
2023-04-01T15:02:28.337Z,1.95
2023-04-01T15:05:03.581Z,2.03
2023-04-01T15:07:55.860Z,1.15
2023-04-01T15:10:27.937Z,1.45
2023-04-01T15:12:59.747Z,3.53
2023-04-01T15:15:34.687Z,1.42
2023-04-01T15:18:12.885Z,1.33
2023-04-01T15:20:49.307Z,1.50
2023-04-01T15:23:34.142Z,1.00
2023-04-01T15:26:06.520Z,1.00
2023-04-01T15:28:32.809Z,0.47
2023-04-01T15:31:05.729Z,0.80
2023-04-01T15:33:47.834Z,1.35
2023-04-01T15:36:26.372Z,1.55
2023-04-01T15:38:55.710Z,1.75
2023-04-01T15:41:44.084Z,2.33
2023-04-01T15:44:33.064Z,3.30
2023-04-01T15:46:59.538Z,0.88
2023-04-01T15:49:33.652Z,0.82
2023-04-01T15:52:02.797Z,0.80
2023-04-01T15:54:29.081Z,2.15
2023-04-01T15:57:07.272Z,1.20
2023-04-01T15:59:33.593Z,0.98
2023-04-01T16:02:01.645Z,0.60
2023-04-01T16:04:35.791Z,1.33
2023-04-01T16:07:11.396Z,1.08
2023-04-01T16:10:01.468Z,1.00
2023-04-01T16:12:33.635Z,1.00
2023-04-01T16:15:12.145Z,1.27
2023-04-01T16:17:57.495Z,1.50
2023-04-01T16:20:46.936Z,1.25
2023-04-01T16:23:27.786Z,1.08
2023-04-01T16:28:23.210Z,1.67
2023-04-01T16:31:08.224Z,1.65
2023-04-01T16:33:40.683Z,1.05
2023-04-01T16:36:11.325Z,0.93
2023-04-01T16:38:43.944Z,1.02
2023-04-01T16:41:13.191Z,2.10
2023-04-01T16:43:53.027Z,1.10
2023-04-01T16:46:28.561Z,1.60
2023-04-01T16:49:12.908Z,1.02
2023-04-01T16:51:53.269Z,1.88
2023-04-01T16:54:28.832Z,1.40
2023-04-01T16:57:13.998Z,0.65
2023-04-01T17:00:03.101Z,0.65
2023-04-01T17:02:33.158Z,1.10
2023-04-01T17:05:01.450Z,1.20
2023-04-01T17:07:42.754Z,2.05
2023-04-01T17:10:25.698Z,1.70
2023-04-01T17:12:59.464Z,1.83
2023-04-01T17:15:31.785Z,2.33
2023-04-01T17:18:12.309Z,2.65
2023-04-01T17:20:42.981Z,2.53
2023-04-01T17:23:09.193Z,1.85
2023-04-01T17:25:53.538Z,1.38
2023-04-01T17:28:19.737Z,1.45
2023-04-01T17:30:55.381Z,2.58
2023-04-01T17:33:27.434Z,1.27
2023-04-01T17:36:03.837Z,1.85
2023-04-01T17:38:39.098Z,2.03
2023-04-01T17:41:05.417Z,1.42
2023-04-01T17:43:44.078Z,1.55
2023-04-01T17:46:28.927Z,1.08
2023-04-01T17:49:24.413Z,1.48
2023-04-01T17:52:20.713Z,1.02
2023-04-01T17:54:49.750Z,1.25
2023-04-01T17:57:51.617Z,2.15
2023-04-01T18:00:22.242Z,1.75
2023-04-01T18:03:05.207Z,1.55
2023-04-01T18:05:33.752Z,2.10
2023-04-01T18:08:06.707Z,1.77
2023-04-01T18:11:00.728Z,1.60
2023-04-01T18:13:45.245Z,1.30
2023-04-01T18:16:29.745Z,1.23
2023-04-01T18:19:00.795Z,1.67
2023-04-01T18:21:29.901Z,1.65
2023-04-01T18:24:02.139Z,1.90
2023-04-01T18:26:35.647Z,1.67
2023-04-01T18:29:14.155Z,1.50
2023-04-01T18:31:45.895Z,1.70
2023-04-01T18:34:18.021Z,1.83
2023-04-01T18:36:54.124Z,4.15
2023-04-01T18:39:36.188Z,1.65
2023-04-01T18:42:15.945Z,2.60
2023-04-01T18:44:53.294Z,1.67
2023-04-01T18:47:38.325Z,0.82
2023-04-01T18:50:19.946Z,2.95
2023-04-01T18:52:46.689Z,3.88
2023-04-01T18:55:23.743Z,4.75
2023-04-01T18:57:55.054Z,2.58
2023-04-01T19:00:23.548Z,2.97
2023-04-01T19:02:54.199Z,0.98
2023-04-01T19:05:24.667Z,0.98
2023-04-01T19:07:51.892Z,2.47
2023-04-01T19:10:38.356Z,1.85
2023-04-01T19:13:13.710Z,1.15
2023-04-01T19:15:43.003Z,1.55
2023-04-01T19:18:09.459Z,1.88
2023-04-01T19:20:41.755Z,1.65
2023-04-01T19:23:07.992Z,1.40
2023-04-01T19:25:56.253Z,1.17
2023-04-01T19:28:23.607Z,0.85
2023-04-01T19:31:03.412Z,1.30
2023-04-01T19:33:29.697Z,1.05
2023-04-01T19:35:56.126Z,1.60
2023-04-01T19:38:22.442Z,7.85
2023-04-01T19:40:53.660Z,0.98
2023-04-01T19:43:38.816Z,1.48
2023-04-01T19:46:15.165Z,2.00
2023-04-01T19:48:47.571Z,0.85
2023-04-01T19:51:13.849Z,1.17
2023-04-01T19:53:49.604Z,1.02
2023-04-01T19:56:23.391Z,3.10
2023-04-01T19:58:49.775Z,1.00
2023-04-01T20:01:21.391Z,1.77
2023-04-01T20:03:51.341Z,1.60
2023-04-01T20:06:35.806Z,1.90
2023-04-01T20:09:02.084Z,1.90
2023-04-01T20:11:31.306Z,1.55
2023-04-01T20:13:57.529Z,1.95
2023-04-01T20:16:37.450Z,1.80
2023-04-01T20:19:03.880Z,0.82
2023-04-01T20:21:41.886Z,1.50
2023-04-01T20:24:13.961Z,1.75
2023-04-01T20:26:41.786Z,2.70
2023-04-01T20:29:11.066Z,2.97
2023-04-01T20:31:46.271Z,2.10
2023-04-01T20:34:23.967Z,2.55
2023-04-01T20:37:09.199Z,2.38
2023-04-01T20:39:41.483Z,1.83
2023-04-01T20:42:26.338Z,2.85
2023-04-01T20:45:15.039Z,5.00
2023-04-01T20:47:47.261Z,4.93
2023-04-01T20:50:28.621Z,5.93
2023-04-01T20:53:01.683Z,3.75
2023-04-01T20:55:40.879Z,5.07
2023-04-01T20:58:14.828Z,2.70
2023-04-01T21:00:43.838Z,3.67
2023-04-01T21:03:20.041Z,3.92
2023-04-01T21:06:01.473Z,4.95
2023-04-01T21:08:27.710Z,5.75
2023-04-01T21:10:53.993Z,6.15
2023-04-01T21:13:37.867Z,6.75
2023-04-01T21:16:27.218Z,4.95
2023-04-01T21:19:06.327Z,4.32
2023-04-01T21:21:40.561Z,4.15
2023-04-01T21:24:06.837Z,4.05
2023-04-01T21:26:48.210Z,5.82
2023-04-01T21:29:23.571Z,5.25
2023-04-01T21:32:16.691Z,3.97
2023-04-01T21:34:44.995Z,2.58
2023-04-01T21:37:29.884Z,4.78
2023-04-01T21:40:02.182Z,4.43
2023-04-01T21:42:35.117Z,3.97
2023-04-01T21:45:01.515Z,2.72
2023-04-01T21:47:40.590Z,2.20
2023-04-01T21:50:06.981Z,1.95
2023-04-01T21:52:58.748Z,1.88
2023-04-01T21:55:43.155Z,3.10
2023-04-01T21:58:21.486Z,1.80
2023-04-01T22:00:53.575Z,2.88
2023-04-01T22:03:39.307Z,2.47
2023-04-01T22:06:17.068Z,1.42
2023-04-01T22:08:43.328Z,2.28
2023-04-01T22:11:09.620Z,5.30
2023-04-01T22:13:54.367Z,2.78
2023-04-01T22:16:20.691Z,2.65
2023-04-01T22:18:52.458Z,2.63
2023-04-01T22:21:28.087Z,2.13
2023-04-01T22:23:57.502Z,2.03
2023-04-01T22:26:23.894Z,2.97
2023-04-01T22:28:59.071Z,3.65
2023-04-01T22:31:40.173Z,3.83
2023-04-01T22:34:19.101Z,4.20
2023-04-01T22:36:54.929Z,2.17
2023-04-01T22:39:31.571Z,2.00
2023-04-01T22:42:00.822Z,2.70
2023-04-01T22:44:45.996Z,3.60
2023-04-01T22:47:24.633Z,2.50
2023-04-01T22:49:51.311Z,4.68
2023-04-01T22:52:45.201Z,3.60
2023-04-01T22:55:14.538Z,3.63
2023-04-01T22:57:40.769Z,3.03
2023-04-01T23:00:20.778Z,4.15
2023-04-01T23:03:09.701Z,2.55
2023-04-01T23:05:37.580Z,5.68
2023-04-01T23:08:39.217Z,4.20
2023-04-01T23:11:07.331Z,3.00
2023-04-01T23:13:38.827Z,3.97
2023-04-01T23:16:05.856Z,4.03
2023-04-01T23:18:46.161Z,2.80
2023-04-01T23:21:12.374Z,3.53
2023-04-01T23:23:52.851Z,2.50
2023-04-01T23:26:22.647Z,3.13
2023-04-01T23:28:50.589Z,2.25
2023-04-01T23:31:35.313Z,5.07
2023-04-01T23:34:01.765Z,4.47
2023-04-01T23:36:28.693Z,2.03
2023-04-01T23:38:55.352Z,9.32
2023-04-01T23:41:27.090Z,1.95
2023-04-01T23:44:13.574Z,3.50
2023-04-01T23:46:40.725Z,7.15
2023-04-01T23:49:11.075Z,4.82
2023-04-01T23:51:41.648Z,7.35
2023-04-01T23:54:17.599Z,4.18
2023-04-01T23:56:52.772Z,8.35
2023-04-01T23:59:23.140Z,8.23
